Time;durP1;ratioP1;P1;durP2;ratioP2;P2;SDS_P1;SDS_P2;PMS_P1;PMS_P2;Temp;Humidity;BMP_temperature;BMP_pressure;BME280_temperature;BME280_humidity;BME280_pressure;Samples;Min_cycle;Max_cycle;Signal;HPM_P1;HPM_P2
2020/12/27 00:00:45;;;;;;;0.00;0.00;;;15.90;66.50;;;;;;4212359;28;20087;-40
2020/12/27 00:03:06;;;;;;;0.32;0.32;;;16.10;66.20;;;;;;4226471;28;20079;-40
2020/12/27 00:05:27;;;;;;;0.00;0.00;;;16.20;65.60;;;;;;4228803;28;20490;-43
2020/12/27 00:07:47;;;;;;;0.00;0.00;;;16.30;65.00;;;;;;4229469;28;20101;-41
2020/12/27 00:10:08;;;;;;;0.00;0.00;;;16.30;65.10;;;;;;4229529;28;20051;-40
2020/12/27 00:12:30;;;;;;;0.10;0.10;;;16.40;64.60;;;;;;4229115;28;20047;-40
2020/12/27 00:14:50;;;;;;;0.28;0.28;;;16.60;63.80;;;;;;4228972;28;20051;-40
2020/12/27 00:17:12;;;;;;;;;;;16.70;63.10;;;;;;4229372;28;20071;-41
2020/12/27 00:19:34;;;;;;;0.08;0.08;;;16.90;62.40;;;;;;4228889;28;20502;-41
2020/12/27 00:21:54;;;;;;;0.00;0.00;;;17.20;61.30;;;;;;4229546;28;20055;-41
2020/12/27 00:24:15;;;;;;;0.17;0.17;;;17.50;60.30;;;;;;4229562;28;20051;-43
2020/12/27 00:26:36;;;;;;;0.40;0.40;;;17.70;59.40;;;;;;4228804;28;20130;-44
2020/12/27 00:28:58;;;;;;;0.00;0.00;;;17.70;59.00;;;;;;4228872;28;20153;-41
2020/12/27 00:31:19;;;;;;;0.00;0.00;;;17.70;59.10;;;;;;4228726;28;20047;-41
2020/12/27 00:33:39;;;;;;;0.00;0.00;;;17.60;59.10;;;;;;4218794;28;20530;-41
2020/12/27 00:36:01;;;;;;;0.00;0.00;;;17.60;59.20;;;;;;4228807;28;20516;-42
2020/12/27 00:38:22;;;;;;;0.00;0.00;;;17.60;59.30;;;;;;4229132;28;20500;-40
2020/12/27 00:40:43;;;;;;;0.00;0.00;;;17.40;59.70;;;;;;4228787;28;20101;-41
2020/12/27 00:43:05;;;;;;;0.00;0.00;;;17.30;60.30;;;;;;4228706;28;20055;-42
2020/12/27 00:45:27;;;;;;;0.43;0.30;;;17.30;60.20;;;;;;4228631;28;20468;-40
2020/12/27 00:47:48;;;;;;;0.10;0.10;;;17.50;59.80;;;;;;4227533;28;20048;-40
2020/12/27 00:50:09;;;;;;;0.10;0.10;;;17.50;59.50;;;;;;4229199;28;20413;-40
2020/12/27 00:52:30;;;;;;;0.00;0.00;;;17.50;59.30;;;;;;4228931;28;20062;-40
2020/12/27 00:54:51;;;;;;;2.60;0.55;;;17.60;59.30;;;;;;4211885;28;20506;-40
2020/12/27 00:57:13;;;;;;;0.03;0.03;;;17.60;59.10;;;;;;4211955;28;20052;-40
2020/12/27 00:59:34;;;;;;;0.00;0.00;;;17.60;59.10;;;;;;4223343;28;20116;-40
2020/12/27 01:01:57;;;;;;;0.00;0.00;;;17.50;59.20;;;;;;4228493;28;20513;-40
2020/12/27 01:04:52;;;;;;;0.17;0.17;;;17.50;59.50;;;;;;4230018;28;20100;-40
2020/12/27 01:07:19;;;;;;;0.03;0.03;;;17.30;60.00;;;;;;4231831;28;20565;-42
2020/12/27 01:09:48;;;;;;;0.00;0.00;;;17.40;59.80;;;;;;4231061;28;20052;-42
2020/12/27 01:12:09;;;;;;;0.10;0.10;;;17.60;59.00;;;;;;4231375;28;20505;-40
2020/12/27 01:14:31;;;;;;;0.10;0.10;;;17.70;58.70;;;;;;4219421;28;20563;-39
2020/12/27 01:16:59;;;;;;;0.00;0.00;;;17.70;58.70;;;;;;4230017;28;20044;-40
2020/12/27 01:19:25;;;;;;;0.00;0.00;;;17.70;58.80;;;;;;4230589;28;20059;-41
2020/12/27 01:21:47;;;;;;;0.10;0.10;;;17.60;59.00;;;;;;4230780;28;20508;-40
2020/12/27 01:24:12;;;;;;;0.10;0.10;;;17.40;59.30;;;;;;4230061;28;20567;-40
2020/12/27 01:26:36;;;;;;;0.00;0.00;;;17.30;59.80;;;;;;4231335;28;20120;-40
2020/12/27 01:28:58;;;;;;;0.00;0.00;;;17.30;60.00;;;;;;4231248;28;20051;-40
2020/12/27 01:31:20;;;;;;;0.10;0.10;;;17.40;59.70;;;;;;4229899;28;20052;-40
2020/12/27 01:33:43;;;;;;;0.25;0.25;;;17.50;59.30;;;;;;4229686;28;20567;-41
2020/12/27 01:36:06;;;;;;;0.20;0.20;;;17.50;59.30;;;;;;4230154;28;20101;-40
2020/12/27 01:38:27;;;;;;;0.10;0.10;;;17.40;59.30;;;;;;4229786;28;20509;-41
2020/12/27 01:40:48;;;;;;;0.20;0.20;;;17.50;59.10;;;;;;4229863;28;20051;-41
2020/12/27 01:43:11;;;;;;;0.10;0.10;;;17.70;58.80;;;;;;4230000;28;20043;-44
2020/12/27 01:45:33;;;;;;;0.00;0.00;;;17.80;58.40;;;;;;4231062;28;20070;-42
2020/12/27 01:48:15;;;;;;;0.38;0.28;;;17.70;58.30;;;;;;4212987;28;20154;-41
2020/12/27 01:50:42;;;;;;;0.00;0.00;;;17.60;58.60;;;;;;4212891;28;20048;-41
2020/12/27 01:53:04;;;;;;;0.05;0.05;;;17.50;59.00;;;;;;4227315;28;20464;-42
2020/12/27 01:55:32;;;;;;;0.00;0.00;;;17.30;59.50;;;;;;4213279;28;20047;-41
2020/12/27 01:58:16;;;;;;;0.00;0.00;;;17.20;59.80;;;;;;4214426;28;20083;-44
2020/12/27 02:00:47;;;;;;;0.85;0.85;;;17.30;59.60;;;;;;4212827;28;20048;-40
2020/12/27 02:03:21;;;;;;;0.10;0.10;;;17.50;59.10;;;;;;4229557;28;20055;-40
2020/12/27 02:05:51;;;;;;;0.00;0.00;;;17.60;58.60;;;;;;4229845;28;20569;-41
2020/12/27 02:08:18;;;;;;;0.00;0.00;;;17.70;58.30;;;;;;4230991;28;20594;-40
2020/12/27 02:10:49;;;;;;;0.00;0.00;;;17.90;57.80;;;;;;4229684;28;20482;-40
2020/12/27 02:13:11;;;;;;;0.10;0.10;;;18.10;57.10;;;;;;4229011;28;20047;-41
2020/12/27 02:15:32;;;;;;;0.10;0.10;;;18.30;56.70;;;;;;4231044;28;20118;-41
2020/12/27 02:18:18;;;;;;;0.00;0.00;;;18.30;56.50;;;;;;4230891;28;20509;-41
2020/12/27 02:20:42;;;;;;;0.00;0.00;;;18.20;56.80;;;;;;4229434;28;20052;-41
2020/12/27 02:23:12;;;;;;;0.10;0.10;;;18.20;56.90;;;;;;4229599;28;20047;-41
2020/12/27 02:25:43;;;;;;;0.00;0.00;;;18.10;56.80;;;;;;4229504;28;20059;-40
2020/12/27 02:28:13;;;;;;;0.00;0.00;;;18.00;57.00;;;;;;4229337;28;20052;-40
2020/12/27 02:30:34;;;;;;;0.00;0.00;;;17.90;57.30;;;;;;4229560;28;20494;-40
2020/12/27 02:32:57;;;;;;;0.00;0.00;;;17.80;57.60;;;;;;4221878;28;20493;-40
2020/12/27 02:35:19;;;;;;;0.00;0.00;;;17.70;58.00;;;;;;4229012;28;20059;-41
2020/12/27 02:37:43;;;;;;;0.22;0.22;;;17.70;58.10;;;;;;4229272;28;20497;-41
2020/12/27 02:40:07;;;;;;;0.00;0.00;;;17.80;57.80;;;;;;4230166;27;20043;-40
2020/12/27 02:42:47;;;;;;;0.00;0.00;;;18.00;57.20;;;;;;4214583;28;20396;-41
2020/12/27 02:45:11;;;;;;;0.00;0.00;;;18.00;57.00;;;;;;4228827;28;20055;-40
2020/12/27 02:47:51;;;;;;;0.00;0.00;;;18.00;56.80;;;;;;4230173;28;20059;-41
2020/12/27 02:50:24;;;;;;;0.20;0.20;;;18.00;56.80;;;;;;4228807;28;20071;-41
2020/12/27 02:52:46;;;;;;;0.00;0.00;;;18.00;56.90;;;;;;4228516;28;20061;-40
2020/12/27 02:55:07;;;;;;;0.10;0.10;;;17.90;57.20;;;;;;4229348;28;20047;-41
2020/12/27 02:57:36;;;;;;;0.00;0.00;;;17.80;57.50;;;;;;4243899;27;20107;-40
2020/12/27 02:59:58;;;;;;;0.00;0.00;;;17.90;57.20;;;;;;4212516;28;20134;-40
2020/12/27 03:02:39;;;;;;;0.00;0.00;;;18.10;56.70;;;;;;4230182;28;20143;-40
2020/12/27 03:05:07;;;;;;;0.30;0.30;;;18.20;56.30;;;;;;4230243;28;20480;-41
2020/12/27 03:07:28;;;;;;;0.00;0.00;;;18.30;56.10;;;;;;4230136;27;20086;-41
2020/12/27 03:10:07;;;;;;;0.00;0.00;;;18.30;56.20;;;;;;4228845;28;20050;-40
2020/12/27 03:12:34;;;;;;;0.08;0.08;;;18.30;56.00;;;;;;4211857;28;20052;-40
2020/12/27 03:14:55;;;;;;;0.00;0.00;;;18.30;56.00;;;;;;4211723;28;20056;-40
2020/12/27 03:17:49;;;;;;;0.00;0.00;;;18.20;56.30;;;;;;4194619;28;20056;-40
2020/12/27 03:20:29;;;;;;;0.00;0.00;;;18.10;56.50;;;;;;4228922;28;20494;-40
2020/12/27 03:23:01;;;;;;;0.00;0.00;;;18.20;56.40;;;;;;4228023;28;20052;-40
2020/12/27 03:25:43;;;;;;;0.00;0.00;;;18.30;56.10;;;;;;4229221;28;20096;-40
2020/12/27 03:28:05;;;;;;;0.00;0.00;;;18.30;55.90;;;;;;4228159;28;20134;-40
2020/12/27 03:30:25;;;;;;;0.00;0.00;;;18.20;56.80;;;;;;4229408;28;20051;-40
2020/12/27 03:32:50;;;;;;;0.00;0.00;;;18.20;56.00;;;;;;4211359;28;20056;-40
2020/12/27 03:35:11;;;;;;;0.00;0.00;;;18.30;55.90;;;;;;4211284;28;20052;-40
2020/12/27 03:37:35;;;;;;;0.15;0.15;;;18.40;55.50;;;;;;4211563;28;20058;-40
2020/12/27 03:40:10;;;;;;;0.00;0.00;;;18.40;55.50;;;;;;4212744;28;20048;-40
2020/12/27 03:42:49;;;;;;;0.00;0.00;;;18.30;55.50;;;;;;4211242;28;20109;-40
2020/12/27 03:45:10;;;;;;;0.00;0.00;;;18.40;55.50;;;;;;4219428;28;20055;-40
2020/12/27 03:47:58;;;;;;;0.10;0.10;;;18.40;55.40;;;;;;4218466;28;20050;-40
2020/12/27 03:50:39;;;;;;;0.00;0.00;;;18.40;55.40;;;;;;4228753;28;20043;-40
2020/12/27 03:53:00;;;;;;;0.00;0.00;;;18.40;55.30;;;;;;4227894;28;20052;-40
2020/12/27 03:55:44;;;;;;;0.00;0.00;;;18.50;54.90;;;;;;4228053;28;20051;-40
2020/12/27 03:58:34;;;;;;;0.00;0.00;;;18.70;54.50;;;;;;4210426;28;20060;-40
2020/12/27 04:01:10;;;;;;;0.13;0.13;;;18.60;54.50;;;;;;4218742;28;20429;-40
2020/12/27 04:03:32;;;;;;;0.00;0.00;;;18.50;54.70;;;;;;4227956;28;20132;-40
2020/12/27 04:06:02;;;;;;;0.20;0.20;;;18.50;54.90;;;;;;4229103;28;20052;-39
2020/12/27 04:08:25;;;;;;;0.00;0.00;;;18.40;55.20;;;;;;4227520;28;20060;-40
2020/12/27 04:10:47;;;;;;;0.00;0.00;;;18.20;55.40;;;;;;4227763;28;20079;-40
2020/12/27 04:13:09;;;;;;;0.00;0.00;;;18.00;55.90;;;;;;4228089;28;20530;-40
2020/12/27 04:15:30;;;;;;;0.00;0.00;;;18.00;56.30;;;;;;4227991;28;20052;-40
2020/12/27 04:17:59;;;;;;;0.00;0.00;;;18.00;56.20;;;;;;4227386;28;20533;-41
2020/12/27 04:20:31;;;;;;;0.00;0.00;;;18.10;55.80;;;;;;4228173;28;20058;-41
2020/12/27 04:22:53;;;;;;;0.00;0.00;;;18.20;55.50;;;;;;4227505;28;20193;-41
2020/12/27 04:25:15;;;;;;;0.00;0.00;;;18.30;55.10;;;;;;4228152;28;20493;-40
2020/12/27 04:27:36;;;;;;;0.10;0.10;;;18.40;54.80;;;;;;4227580;28;20071;-41
2020/12/27 04:29:57;;;;;;;0.00;0.00;;;18.50;54.60;;;;;;4227976;28;20055;-40
2020/12/27 04:32:38;;;;;;;3.00;1.00;;;18.50;54.50;;;;;;4212098;28;20135;-40
2020/12/27 04:35:14;;;;;;;0.00;0.00;;;18.40;54.70;;;;;;4211093;28;20197;-40
2020/12/27 04:37:39;;;;;;;0.00;0.00;;;18.30;55.00;;;;;;4227973;28;20051;-40
2020/12/27 04:40:09;;;;;;;0.90;0.50;;;18.30;55.10;;;;;;4229822;28;20569;-40
2020/12/27 04:42:33;;;;;;;0.00;0.00;;;18.50;54.40;;;;;;4230977;28;20063;-40
2020/12/27 04:44:56;;;;;;;0.30;0.30;;;18.60;54.10;;;;;;4231223;28;20566;-41
2020/12/27 04:47:37;;;;;;;0.00;0.00;;;18.60;54.10;;;;;;4223569;28;20774;-41
2020/12/27 04:50:20;;;;;;;0.00;0.00;;;18.40;54.50;;;;;;4215709;28;20555;-40
2020/12/27 04:52:42;;;;;;;0.65;0.52;;;18.30;54.70;;;;;;4230718;28;20048;-40
2020/12/27 04:55:14;;;;;;;0.28;0.28;;;18.20;55.10;;;;;;4230442;28;20545;-40
2020/12/27 04:58:03;;;;;;;0.00;0.00;;;18.00;55.60;;;;;;4231311;28;20048;-40
2020/12/27 05:00:44;;;;;;;0.00;0.00;;;17.90;56.00;;;;;;4231610;28;20565;-40
2020/12/27 05:03:23;;;;;;;0.00;0.00;;;18.00;56.00;;;;;;4231764;28;20062;-40
2020/12/27 05:05:48;;;;;;;0.00;0.00;;;18.10;55.70;;;;;;4230342;28;20062;-40
2020/12/27 05:08:11;;;;;;;0.00;0.00;;;18.10;55.50;;;;;;4230285;28;20064;-40
2020/12/27 05:11:02;;;;;;;0.00;0.00;;;18.20;55.50;;;;;;4227485;28;20168;-40
2020/12/27 05:13:24;;;;;;;0.90;0.30;;;18.30;54.90;;;;;;4231423;28;20052;-40
2020/12/27 05:16:15;;;;;;;0.00;0.00;;;18.40;54.60;;;;;;4227754;28;20062;-40
2020/12/27 05:18:36;;;;;;;0.00;0.00;;;18.40;54.40;;;;;;4230398;28;20058;-40
2020/12/27 05:20:57;;;;;;;0.00;0.00;;;18.50;54.20;;;;;;4230605;28;20134;-40
2020/12/27 05:23:24;;;;;;;0.00;0.00;;;18.50;54.20;;;;;;4231925;28;20516;-40
2020/12/27 05:26:04;;;;;;;0.00;0.00;;;18.50;54.30;;;;;;4230202;28;20587;-40
2020/12/27 05:28:37;;;;;;;0.00;0.00;;;18.30;54.70;;;;;;4226699;28;20193;-40
2020/12/27 05:31:15;;;;;;;0.28;0.28;;;18.30;54.70;;;;;;4230584;28;20052;-40
2020/12/27 05:33:55;;;;;;;0.00;0.00;;;18.50;54.20;;;;;;4231083;28;20421;-40
2020/12/27 05:36:45;;;;;;;0.00;0.00;;;18.60;53.70;;;;;;4231255;28;20075;-40
2020/12/27 05:39:27;;;;;;;0.00;0.00;;;18.60;53.70;;;;;;4231519;28;20504;-40
2020/12/27 05:42:01;;;;;;;0.00;0.00;;;18.60;54.60;;;;;;4230857;28;20054;-40
2020/12/27 05:44:21;;;;;;;0.28;0.28;;;18.60;53.90;;;;;;4231378;27;20071;-40
2020/12/27 05:46:51;;;;;;;0.00;0.00;;;18.60;53.80;;;;;;4229774;28;20059;-40
2020/12/27 05:49:17;;;;;;;0.00;0.00;;;18.50;53.90;;;;;;4229832;28;20580;-40
2020/12/27 05:51:50;;;;;;;0.00;0.00;;;18.50;54.20;;;;;;4229846;28;20116;-40
2020/12/27 05:54:19;;;;;;;0.00;0.00;;;18.30;54.40;;;;;;4229883;28;20059;-40
2020/12/27 05:56:56;;;;;;;0.00;0.00;;;18.20;54.90;;;;;;4218146;28;20142;-39
2020/12/27 05:59:19;;;;;;;0.00;0.00;;;18.00;55.40;;;;;;4229880;28;20154;-40
2020/12/27 06:01:54;;;;;;;0.00;0.00;;;17.90;55.70;;;;;;4229637;28;20390;-40
2020/12/27 06:04:57;;;;;;;0.00;0.00;;;17.80;55.90;;;;;;4229562;28;20056;-39
2020/12/27 06:07:33;;;;;;;0.00;0.00;;;17.70;56.10;;;;;;4229874;28;20051;-40
2020/12/27 06:10:00;;;;;;;0.00;0.00;;;17.60;56.50;;;;;;4229336;28;20055;-40
2020/12/27 06:12:36;;;;;;;;;;;17.60;56.50;;;;;;4229973;28;20079;-42
2020/12/27 06:15:07;;;;;;;0.00;0.00;;;17.80;56.30;;;;;;4229476;28;19919;-40
2020/12/27 06:18:07;;;;;;;0.00;0.00;;;17.90;55.80;;;;;;4230702;28;20105;-40
2020/12/27 06:20:55;;;;;;;0.00;0.00;;;18.20;55.30;;;;;;4230410;28;20054;-40
2020/12/27 06:23:16;;;;;;;0.00;0.00;;;18.30;54.70;;;;;;4229344;28;20054;-40
2020/12/27 06:25:41;;;;;;;0.00;0.00;;;18.50;54.20;;;;;;4212524;28;20513;-40
2020/12/27 06:28:06;;;;;;;0.00;0.00;;;18.70;53.90;;;;;;4214577;28;20062;-40
2020/12/27 06:31:08;;;;;;;0.00;0.00;;;18.80;53.50;;;;;;4224782;28;20051;-41
2020/12/27 06:33:52;;;;;;;0.20;0.20;;;18.90;53.10;;;;;;4229237;28;20188;-40
2020/12/27 06:36:40;;;;;;;0.20;0.20;;;19.00;53.00;;;;;;4229916;28;20047;-42
2020/12/27 06:39:24;;;;;;;0.00;0.00;;;18.90;53.20;;;;;;4229089;28;20052;-40
2020/12/27 06:42:04;;;;;;;0.10;0.10;;;19.00;53.00;;;;;;4229019;28;20547;-40
2020/12/27 06:44:42;;;;;;;0.00;0.00;;;19.10;52.80;;;;;;4229020;28;20147;-40
2020/12/27 06:47:16;;;;;;;0.00;0.00;;;19.10;52.60;;;;;;4228676;28;20047;-40
2020/12/27 06:49:45;;;;;;;0.00;0.00;;;19.00;52.80;;;;;;4228722;28;20139;-40
2020/12/27 06:52:21;;;;;;;0.00;0.00;;;18.90;53.20;;;;;;4228611;28;20135;-40
2020/12/27 06:55:01;;;;;;;0.17;0.17;;;18.70;53.60;;;;;;4229834;28;20052;-40
2020/12/27 06:57:40;;;;;;;0.00;0.00;;;18.80;53.60;;;;;;4228941;28;20089;-40
2020/12/27 07:00:24;;;;;;;0.00;0.00;;;18.80;53.40;;;;;;4229013;28;20043;-40
2020/12/27 07:03:04;;;;;;;0.00;0.00;;;18.90;53.30;;;;;;4226901;28;20043;-40
2020/12/27 07:05:29;;;;;;;0.00;0.00;;;18.80;53.30;;;;;;4229649;28;20055;-40
2020/12/27 07:07:50;;;;;;;0.00;0.00;;;18.70;53.70;;;;;;4229485;28;20051;-40
2020/12/27 07:10:14;;;;;;;0.00;0.00;;;18.70;54.00;;;;;;4213361;28;20055;-40
2020/12/27 07:12:37;;;;;;;0.00;0.00;;;18.60;54.00;;;;;;4213357;28;20048;-40
2020/12/27 07:14:59;;;;;;;0.00;0.00;;;18.70;53.70;;;;;;4215395;28;20060;-40
2020/12/27 07:17:24;;;;;;;0.00;0.00;;;18.80;53.70;;;;;;4229014;28;20101;-40
2020/12/27 07:19:45;;;;;;;0.00;0.00;;;18.70;53.70;;;;;;4229434;28;20417;-40
2020/12/27 07:22:10;;;;;;;0.00;0.00;;;18.60;53.90;;;;;;4212917;28;20052;-41
2020/12/27 07:24:33;;;;;;;1.25;0.30;;;18.50;54.30;;;;;;4212945;28;20088;-40
2020/12/27 07:26:54;;;;;;;0.00;0.00;;;18.30;55.90;;;;;;4223153;28;20113;-40
2020/12/27 07:29:15;;;;;;;;;;;18.50;55.00;;;;;;4229935;28;20056;-40
2020/12/27 07:31:39;;;;;;;0.00;0.00;;;18.70;54.20;;;;;;4228214;28;19935;-40
2020/12/27 07:34:01;;;;;;;0.00;0.00;;;18.90;53.50;;;;;;4229599;28;20439;-40
2020/12/27 07:36:25;;;;;;;0.20;0.20;;;19.00;53.30;;;;;;4216013;28;20689;-41
2020/12/27 07:38:59;;;;;;;0.00;0.00;;;19.00;53.30;;;;;;4229374;28;20096;-40
2020/12/27 07:41:21;;;;;;;2.50;0.60;;;19.00;53.50;;;;;;4229451;28;20521;-40
2020/12/27 07:43:41;;;;;;;0.00;0.00;;;19.00;53.50;;;;;;4229034;28;20596;-40
2020/12/27 07:46:05;;;;;;;0.55;0.20;;;18.90;53.60;;;;;;4229111;28;20055;-40
2020/12/27 07:48:26;;;;;;;0.03;0.03;;;18.80;53.90;;;;;;4229488;28;20417;-40
2020/12/27 07:50:48;;;;;;;0.00;0.00;;;18.60;54.20;;;;;;4225926;28;20055;-40
2020/12/27 07:53:09;;;;;;;0.00;0.00;;;18.60;54.40;;;;;;4217778;28;20047;-40
2020/12/27 07:55:36;;;;;;;0.00;0.00;;;18.60;54.30;;;;;;4229579;28;20815;-40
2020/12/27 07:58:00;;;;;;;0.00;0.00;;;18.60;54.30;;;;;;4229421;28;20425;-40
2020/12/27 08:00:29;;;;;;;0.00;0.00;;;18.50;54.50;;;;;;4228707;28;20437;-41
2020/12/27 08:02:50;;;;;;;0.00;0.00;;;18.40;55.50;;;;;;4229265;28;20047;-40
2020/12/27 08:05:12;;;;;;;0.60;0.60;;;18.50;54.60;;;;;;4229100;28;20056;-41
2020/12/27 08:07:33;;;;;;;0.00;0.00;;;18.50;54.60;;;;;;4227928;28;20593;-43
2020/12/27 08:09:55;;;;;;;0.00;0.00;;;18.40;54.70;;;;;;4217340;28;20476;-40
2020/12/27 08:12:16;;;;;;;;;;;18.30;55.10;;;;;;4218611;28;20039;-41
2020/12/27 08:14:37;;;;;;;;;;;18.20;55.40;;;;;;4232928;28;20014;-40
2020/12/27 08:16:58;;;;;;;0.00;0.00;;;18.20;55.90;;;;;;4232015;28;19928;-40
2020/12/27 08:19:20;;;;;;;0.20;0.20;;;18.10;56.80;;;;;;4219450;28;20047;-40
2020/12/27 08:21:43;;;;;;;0.00;0.00;;;18.10;56.30;;;;;;4231450;28;20055;-39
2020/12/27 08:24:16;;;;;;;0.00;0.00;;;18.20;56.30;;;;;;4231777;28;20047;-40
2020/12/27 08:26:39;;;;;;;0.03;0.03;;;18.40;55.90;;;;;;4232417;28;20052;-40
2020/12/27 08:29:10;;;;;;;0.00;0.00;;;18.50;55.60;;;;;;4232394;28;20062;-40
2020/12/27 08:31:31;;;;;;;0.10;0.10;;;18.50;55.60;;;;;;4232258;28;20054;-40
2020/12/27 08:34:07;;;;;;;0.00;0.00;;;18.40;55.80;;;;;;4232376;28;20056;-40
2020/12/27 08:36:28;;;;;;;0.00;0.00;;;18.30;56.20;;;;;;4232272;28;20108;-40
2020/12/27 08:38:55;;;;;;;;;;;18.10;56.60;;;;;;4232900;28;20494;-40
2020/12/27 08:41:23;;;;;;;0.00;0.00;;;18.00;56.80;;;;;;4232367;28;19923;-40
2020/12/27 08:43:59;;;;;;;0.00;0.00;;;18.00;56.90;;;;;;4232248;28;20047;-40
2020/12/27 08:46:23;;;;;;;0.00;0.00;;;17.90;57.30;;;;;;4232121;28;20052;-40
2020/12/27 08:48:52;;;;;;;0.00;0.00;;;17.70;57.70;;;;;;4232201;28;20051;-40
2020/12/27 08:51:13;;;;;;;0.00;0.00;;;17.60;58.00;;;;;;4232041;28;20051;-40
2020/12/27 08:53:45;;;;;;;0.00;0.00;;;17.50;58.20;;;;;;4232025;27;20449;-39
2020/12/27 08:56:08;;;;;;;2.40;0.65;;;17.50;58.50;;;;;;4232128;28;20418;-40
2020/12/27 08:58:30;;;;;;;0.00;0.00;;;17.40;58.70;;;;;;4232106;28;20051;-40
2020/12/27 09:00:51;;;;;;;0.80;0.80;;;17.30;59.00;;;;;;4231794;27;20128;-40
2020/12/27 09:03:12;;;;;;;0.00;0.00;;;17.20;59.20;;;;;;4231830;28;20086;-40
2020/12/27 09:05:35;;;;;;;0.00;0.00;;;17.10;59.40;;;;;;4231755;28;20052;-40
2020/12/27 09:07:56;;;;;;;0.00;0.00;;;17.10;60.40;;;;;;4231572;28;20360;-40
2020/12/27 09:10:21;;;;;;;0.00;0.00;;;17.00;59.80;;;;;;4231875;28;20463;-41
2020/12/27 09:12:57;;;;;;;0.00;0.00;;;17.20;59.40;;;;;;4231742;28;20108;-40
2020/12/27 09:15:22;;;;;;;0.00;0.00;;;17.50;58.90;;;;;;4231713;28;20437;-40
2020/12/27 09:17:46;;;;;;;0.00;0.00;;;17.70;58.30;;;;;;4230638;28;20051;-40
2020/12/27 09:20:07;;;;;;;0.00;0.00;;;17.80;57.90;;;;;;4231634;28;20108;-40
2020/12/27 09:22:28;;;;;;;0.20;0.20;;;17.90;57.60;;;;;;4231659;28;20051;-40
2020/12/27 09:25:05;;;;;;;0.00;0.00;;;18.00;57.40;;;;;;4230945;28;20051;-40
2020/12/27 09:27:26;;;;;;;0.10;0.10;;;17.90;57.30;;;;;;4231466;28;20052;-41
2020/12/27 09:29:59;;;;;;;0.17;0.17;;;17.80;57.50;;;;;;4231340;28;20746;-40
2020/12/27 09:32:21;;;;;;;0.80;0.80;;;17.70;57.80;;;;;;4231334;28;20048;-39
2020/12/27 09:34:42;;;;;;;0.00;0.00;;;17.70;57.80;;;;;;4231256;28;20051;-39
2020/12/27 09:37:17;;;;;;;0.00;0.00;;;17.70;57.80;;;;;;4231430;28;20513;-40
2020/12/27 09:39:38;;;;;;;0.00;0.00;;;17.60;58.10;;;;;;4231553;28;20561;-40
2020/12/27 09:41:59;;;;;;;0.00;0.00;;;17.60;58.20;;;;;;4231307;28;20051;-40
2020/12/27 09:44:29;;;;;;;0.10;0.10;;;18.20;57.00;;;;;;4231284;28;20130;-41
2020/12/27 09:46:51;;;;;;;0.00;0.00;;;19.00;55.60;;;;;;4231171;28;20150;-39
2020/12/27 09:49:21;;;;;;;0.00;0.00;;;19.80;52.90;;;;;;4231261;27;20075;-40
2020/12/27 09:51:42;;;;;;;0.00;0.00;;;20.60;50.90;;;;;;4227424;28;20055;-41
2020/12/27 09:54:03;;;;;;;;;;;21.10;49.60;;;;;;4218422;28;20056;-41
2020/12/27 09:56:24;;;;;;;0.00;0.00;;;21.80;47.90;;;;;;4230915;28;19923;-42
2020/12/27 09:58:45;;;;;;;0.00;0.00;;;22.30;47.00;;;;;;4230678;28;20126;-41
2020/12/27 10:01:06;;;;;;;0.00;0.00;;;22.70;46.10;;;;;;4230926;28;20514;-41
2020/12/27 10:03:27;;;;;;;;;;;23.10;45.40;;;;;;4231073;28;20055;-41
2020/12/27 10:05:49;;;;;;;0.00;0.00;;;23.40;45.10;;;;;;4231088;28;19931;-40
2020/12/27 10:08:10;;;;;;;0.00;0.00;;;23.40;44.90;;;;;;4230601;28;20052;-41
2020/12/27 10:10:46;;;;;;;0.00;0.00;;;23.50;44.70;;;;;;4230294;27;20054;-40
2020/12/27 10:13:07;;;;;;;0.00;0.00;;;23.40;45.10;;;;;;4230941;28;20055;-41
2020/12/27 10:15:28;;;;;;;0.10;0.10;;;23.10;45.60;;;;;;4230656;28;20059;-40
2020/12/27 10:17:49;;;;;;;0.45;0.45;;;22.80;46.30;;;;;;4230849;28;20402;-41
2020/12/27 10:20:10;;;;;;;0.00;0.00;;;22.40;47.30;;;;;;4230327;28;20051;-41
2020/12/27 10:22:32;;;;;;;;;;;22.00;48.10;;;;;;4214141;28;20123;-41
2020/12/27 10:24:53;;;;;;;0.00;0.00;;;21.70;49.00;;;;;;4213872;28;20381;-41
2020/12/27 10:27:14;;;;;;;0.00;0.00;;;21.30;49.90;;;;;;4230053;28;20755;-40
2020/12/27 10:29:36;;;;;;;0.00;0.00;;;21.10;50.40;;;;;;4230264;28;20043;-40
2020/12/27 10:31:59;;;;;;;0.20;0.20;;;21.10;50.30;;;;;;4230564;27;20052;-40
2020/12/27 10:34:20;;;;;;;0.00;0.00;;;21.20;50.30;;;;;;4230484;28;20047;-41
2020/12/27 10:36:44;;;;;;;0.00;0.00;;;21.20;50.20;;;;;;4229384;28;20057;-41
2020/12/27 10:39:06;;;;;;;0.00;0.00;;;21.20;50.20;;;;;;4230756;28;20077;-41
2020/12/27 10:41:27;;;;;;;0.00;0.00;;;21.20;50.30;;;;;;4213483;28;20055;-41
2020/12/27 10:43:49;;;;;;;0.08;0.08;;;21.20;50.30;;;;;;4213235;28;20048;-41
2020/12/27 10:46:12;;;;;;;0.00;0.00;;;21.20;50.50;;;;;;4221642;28;20047;-40
2020/12/27 10:48:34;;;;;;;0.00;0.00;;;21.20;50.40;;;;;;4230019;28;20720;-41
2020/12/27 10:50:55;;;;;;;;;;;21.20;50.20;;;;;;4230665;28;20549;-41
2020/12/27 10:53:15;;;;;;;0.00;0.00;;;21.20;50.10;;;;;;4229894;28;19924;-41
2020/12/27 10:55:46;;;;;;;0.00;0.00;;;21.20;50.10;;;;;;4229985;28;20043;-41
2020/12/27 10:58:06;;;;;;;0.00;0.00;;;21.20;50.10;;;;;;4229765;28;20040;-41
2020/12/27 11:00:27;;;;;;;0.00;0.00;;;21.20;50.00;;;;;;4230140;27;20577;-41
2020/12/27 11:02:48;;;;;;;0.00;0.00;;;21.30;50.00;;;;;;4229839;28;20047;-41
2020/12/27 11:05:09;;;;;;;0.00;0.00;;;21.30;50.10;;;;;;4230030;28;20083;-41
2020/12/27 11:07:31;;;;;;;0.00;0.00;;;21.20;50.00;;;;;;4229697;28;20134;-43
2020/12/27 11:09:52;;;;;;;0.00;0.00;;;21.20;50.20;;;;;;4229543;28;20505;-40
2020/12/27 11:12:14;;;;;;;0.10;0.10;;;21.20;50.20;;;;;;4229853;28;20514;-41
2020/12/27 11:14:35;;;;;;;0.00;0.00;;;21.20;50.20;;;;;;4213003;28;20126;-42
2020/12/27 11:16:56;;;;;;;0.00;0.00;;;21.20;50.10;;;;;;4212981;28;20429;-41
2020/12/27 11:19:17;;;;;;;;;;;21.10;50.30;;;;;;4213584;28;20052;-42
2020/12/27 11:21:45;;;;;;;0.00;0.00;;;21.00;50.60;;;;;;4226734;28;19992;-41
2020/12/27 11:24:06;;;;;;;0.00;0.00;;;21.10;50.80;;;;;;4229551;28;20117;-41
2020/12/27 11:26:27;;;;;;;0.00;0.00;;;21.20;50.60;;;;;;4229563;28;20127;-41
2020/12/27 11:28:49;;;;;;;0.00;0.00;;;21.20;50.40;;;;;;4229058;28;20040;-41
2020/12/27 11:31:09;;;;;;;0.00;0.00;;;21.20;50.40;;;;;;4225690;28;20044;-41
2020/12/27 11:33:30;;;;;;;0.00;0.00;;;21.30;50.30;;;;;;4228895;28;20051;-40
2020/12/27 11:35:51;;;;;;;0.98;0.98;;;21.40;50.00;;;;;;4229246;28;20437;-41
2020/12/27 11:38:11;;;;;;;0.00;0.00;;;21.50;49.70;;;;;;4229550;28;20059;-41
2020/12/27 11:40:32;;;;;;;0.00;0.00;;;21.60;49.40;;;;;;4229280;28;20047;-42
2020/12/27 11:42:53;;;;;;;0.00;0.00;;;21.70;49.30;;;;;;4229000;28;20109;-40
2020/12/27 11:45:15;;;;;;;0.63;0.63;;;21.80;49.20;;;;;;4229622;28;20063;-40
2020/12/27 11:47:36;;;;;;;0.00;0.00;;;21.80;49.10;;;;;;4229263;28;20394;-42
2020/12/27 11:49:58;;;;;;;0.00;0.00;;;21.80;49.10;;;;;;4228960;28;20051;-43
2020/12/27 11:52:18;;;;;;;0.00;0.00;;;21.70;49.30;;;;;;4229177;28;20055;-41
2020/12/27 11:54:39;;;;;;;0.00;0.00;;;21.70;49.60;;;;;;4227958;28;20459;-41
2020/12/27 11:57:01;;;;;;;0.00;0.00;;;21.50;49.80;;;;;;4212421;28;20051;-40
2020/12/27 11:59:22;;;;;;;0.00;0.00;;;21.30;50.40;;;;;;4212471;28;20071;-41
2020/12/27 12:01:45;;;;;;;;;;;21.00;51.00;;;;;;4227153;28;20144;-41
2020/12/27 12:04:06;;;;;;;0.00;0.00;;;20.80;51.50;;;;;;4229210;28;19931;-40
2020/12/27 12:06:27;;;;;;;0.00;0.00;;;20.70;51.90;;;;;;4229022;28;20047;-41
2020/12/27 12:08:48;;;;;;;0.00;0.00;;;20.60;52.20;;;;;;4229485;28;20790;-41
2020/12/27 12:11:09;;;;;;;0.00;0.00;;;20.40;52.70;;;;;;4228924;28;20047;-41
2020/12/27 12:13:30;;;;;;;0.00;0.00;;;20.20;53.90;;;;;;4229116;28;20481;-41
2020/12/27 12:15:51;;;;;;;0.10;0.10;;;20.00;53.50;;;;;;4229104;28;20106;-42
2020/12/27 12:18:13;;;;;;;;;;;20.10;53.40;;;;;;4229467;28;20460;-41
2020/12/27 12:20:45;;;;;;;0.08;0.08;;;20.20;53.30;;;;;;4229108;28;20528;-43
2020/12/27 12:23:06;;;;;;;0.00;0.00;;;20.20;52.90;;;;;;4229175;28;20151;-42
2020/12/27 12:25:27;;;;;;;;;;;20.40;52.70;;;;;;4229531;28;20052;-40
2020/12/27 12:27:48;;;;;;;0.00;0.00;;;20.50;52.30;;;;;;4228882;28;19923;-42
2020/12/27 12:30:09;;;;;;;0.25;0.25;;;20.60;51.80;;;;;;4212260;28;20475;-42
2020/12/27 12:32:30;;;;;;;0.35;0.35;;;20.80;51.40;;;;;;4221706;28;20047;-40
2020/12/27 12:34:52;;;;;;;0.00;0.00;;;20.80;51.30;;;;;;4228526;28;20059;-43
2020/12/27 12:37:13;;;;;;;0.00;0.00;;;20.90;51.30;;;;;;4228826;28;20047;-43
2020/12/27 12:39:33;;;;;;;0.10;0.10;;;20.90;51.10;;;;;;4228954;28;20074;-42
2020/12/27 12:41:56;;;;;;;;;;;21.00;50.90;;;;;;4229039;28;20083;-40
2020/12/27 12:44:16;;;;;;;0.00;0.00;;;21.10;50.60;;;;;;4228691;28;19924;-41
2020/12/27 12:46:37;;;;;;;0.00;0.00;;;21.20;50.50;;;;;;4229009;28;20055;-40